Time;durP1;ratioP1;P1;durP2;ratioP2;P2;SDS_P1;SDS_P2;PMS_P1;PMS_P2;Temp;Humidity;BMP_temperature;BMP_pressure;BME280_temperature;BME280_humidity;BME280_pressure;Samples;Min_cycle;Max_cycle;Signal;HPM_P1;HPM_P2
2023/10/11 00:03:05;;;;;;;13.13;7.13;;;;;;;13.21;100.00;101056.44;6003028;23;20719;-71
2023/10/11 00:05:37;;;;;;;12.15;6.07;;;;;;;13.17;100.00;101048.09;6002305;23;20349;-73
2023/10/11 00:08:03;;;;;;;12.60;5.95;;;;;;;13.12;100.00;101053.50;5978647;23;20811;-73
2023/10/11 00:10:29;;;;;;;11.23;6.70;;;;;;;13.09;100.00;101046.81;5978782;23;20680;-73
2023/10/11 00:12:58;;;;;;;;;;;;;;;13.08;100.00;101055.16;6002838;23;20059;-71
2023/10/11 00:15:29;;;;;;;10.65;6.28;;;;;;;13.04;100.00;101059.50;5956301;23;19917;-72
2023/10/11 00:17:57;;;;;;;14.45;6.63;;;;;;;13.02;100.00;101042.84;5956097;23;20412;-73
2023/10/11 00:20:50;;;;;;;9.68;5.72;;;;;;;12.98;100.00;101039.88;6028066;23;20034;-73
2023/10/11 00:23:20;;;;;;;12.75;5.70;;;;;;;12.98;100.00;101039.09;6002143;23;20026;-72
2023/10/11 00:25:46;;;;;;;11.27;6.03;;;;;;;12.95;100.00;101042.34;6001318;23;20019;-73
2023/10/11 00:28:14;;;;;;;11.18;6.20;;;;;;;12.96;100.00;101049.31;6002996;23;20019;-73
2023/10/11 00:30:40;;;;;;;14.10;6.50;;;;;;;12.92;100.00;101038.31;5978924;23;20022;-72
2023/10/11 00:33:09;;;;;;;;;;;;;;;12.92;100.00;101042.88;5955937;23;20027;-71
2023/10/11 00:35:48;;;;;;;12.48;6.15;;;;;;;12.90;100.00;101029.72;5955203;23;19920;-73
2023/10/11 00:38:21;;;;;;;13.88;6.28;;;;;;;12.90;100.00;101020.84;6023379;23;20026;-74
2023/10/11 00:43:52;;;;;;;13.40;6.50;;;;;;;12.87;100.00;101014.16;5983698;23;20134;-73
2023/10/11 00:46:21;;;;;;;14.60;6.18;;;;;;;12.87;100.00;101024.09;6003190;23;20365;-73
2023/10/11 00:48:53;;;;;;;12.95;6.05;;;;;;;12.86;100.00;101020.59;5982531;23;20046;-73
2023/10/11 00:51:39;;;;;;;15.50;6.53;;;;;;;12.87;100.00;101021.41;6004338;23;20019;-73
2023/10/11 00:54:05;;;;;;;10.80;5.88;;;;;;;12.88;100.00;101023.03;6001916;23;20101;-72
2023/10/11 00:56:32;;;;;;;12.70;7.03;;;;;;;12.87;100.00;101021.41;5979981;23;20015;-73
2023/10/11 00:58:59;;;;;;;13.40;7.03;;;;;;;12.86;100.00;101017.91;5956150;23;20105;-72
2023/10/11 01:01:25;;;;;;;11.00;6.22;;;;;;;12.85;100.00;101025.19;5979387;23;20022;-73
2023/10/11 01:03:53;;;;;;;13.63;7.28;;;;;;;12.86;100.00;101023.28;6002773;23;20019;-72
2023/10/11 01:06:19;;;;;;;13.50;6.35;;;;;;;12.85;100.00;101025.19;6000026;23;20085;-74
2023/10/11 01:08:48;;;;;;;;;;;;;;;12.83;100.00;101016.59;6002258;23;20019;-76
2023/10/11 01:11:14;;;;;;;12.73;6.07;;;;;;;12.81;100.00;101018.75;5978937;23;19917;-72
2023/10/11 01:13:50;;;;;;;9.57;5.80;;;;;;;12.81;100.00;101016.06;6002009;23;20094;-73
2023/10/11 01:16:17;;;;;;;11.85;6.30;;;;;;;12.80;100.00;101009.09;6001706;23;20070;-72
2023/10/11 01:18:43;;;;;;;10.20;5.72;;;;;;;12.81;100.00;101009.91;6028617;23;20019;-73
2023/10/11 01:21:12;;;;;;;8.48;5.45;;;;;;;12.82;100.00;101014.19;5978697;23;20338;-72
2023/10/11 01:23:38;;;;;;;12.88;6.40;;;;;;;12.82;100.00;101012.31;6003363;23;20035;-74
2023/10/11 01:26:07;;;;;;;;;;;;;;;12.81;100.00;101002.63;5955216;23;20449;-74
2023/10/11 01:28:35;;;;;;;15.23;6.40;;;;;;;12.80;100.00;101000.19;6002578;23;19913;-71
2023/10/11 01:31:08;;;;;;;12.00;6.78;;;;;;;12.80;100.00;101011.78;6027337;23;20011;-72
2023/10/11 01:33:42;;;;;;;12.95;5.95;;;;;;;12.79;100.00;101003.97;5978886;23;20015;-72
2023/10/11 01:36:14;;;;;;;13.13;6.25;;;;;;;12.79;100.00;100998.59;6001494;23;20052;-76
2023/10/11 01:38:48;;;;;;;12.77;5.90;;;;;;;12.79;100.00;100994.03;5955323;23;20019;-72
2023/10/11 01:41:16;;;;;;;11.15;6.25;;;;;;;12.79;100.00;101007.47;5977279;23;20030;-73
2023/10/11 01:43:46;;;;;;;9.40;6.00;;;;;;;12.78;100.00;101003.19;5956856;23;20019;-73
2023/10/11 01:46:26;;;;;;;9.32;6.05;;;;;;;12.80;100.00;101006.41;6001194;23;20050;-74
2023/10/11 01:48:57;;;;;;;12.82;6.88;;;;;;;12.79;100.00;101007.47;5977159;23;20034;-74
2023/10/11 01:51:26;;;;;;;12.80;6.20;;;;;;;12.79;100.00;101010.16;5978468;23;20019;-73
2023/10/11 01:54:11;;;;;;;10.98;6.18;;;;;;;12.82;100.00;101004.25;5954702;23;20019;-73
2023/10/11 01:56:40;;;;;;;12.68;5.78;;;;;;;12.83;100.00;100997.78;5978250;23;20019;-74
2023/10/11 01:59:05;;;;;;;10.77;6.32;;;;;;;12.84;100.00;100996.69;6002256;23;20098;-73
2023/10/11 02:01:41;;;;;;;9.05;5.25;;;;;;;12.85;100.00;100998.28;5978451;23;20011;-73
2023/10/11 02:04:17;;;;;;;11.93;6.30;;;;;;;12.87;100.00;100989.16;5955074;23;20030;-73
2023/10/11 02:06:43;;;;;;;9.98;5.88;;;;;;;12.87;100.00;100989.16;5955886;23;20019;-72
2023/10/11 02:09:11;;;;;;;12.82;6.85;;;;;;;12.89;100.00;100987.81;6005443;23;20081;-71
2023/10/11 02:11:41;;;;;;;11.63;6.13;;;;;;;12.87;100.00;100973.84;6003740;23;20027;-72
2023/10/11 02:14:13;;;;;;;10.57;6.20;;;;;;;12.88;100.00;100974.66;5955467;23;20083;-73
2023/10/11 02:16:39;;;;;;;14.20;6.25;;;;;;;12.89;100.00;100982.44;6002732;23;20097;-72
2023/10/11 02:19:05;;;;;;;11.15;6.95;;;;;;;12.89;100.00;100981.63;6002368;23;20015;-72
2023/10/11 02:21:31;;;;;;;16.27;6.45;;;;;;;12.89;100.00;100982.44;6001767;23;20086;-73
2023/10/11 02:23:57;;;;;;;;;;;;;;;12.87;100.00;100973.84;5978560;23;20497;-72
2023/10/11 02:26:31;;;;;;;10.77;6.07;;;;;;;12.87;100.00;100983.78;5955694;23;19925;-73
2023/10/11 02:29:00;;;;;;;14.27;6.45;;;;;;;12.89;100.00;100982.44;6002159;23;20019;-72
2023/10/11 02:31:27;;;;;;;9.77;5.70;;;;;;;12.92;100.00;100975.69;5979562;23;20015;-73
2023/10/11 02:34:07;;;;;;;15.10;6.90;;;;;;;12.90;100.00;100969.78;5980202;23;20563;-74
2023/10/11 02:36:35;;;;;;;11.52;5.78;;;;;;;12.93;100.00;100966.53;5958091;23;20528;-73
2023/10/11 02:39:05;;;;;;;13.50;7.57;;;;;;;12.92;100.00;100973.00;5980035;23;20042;-74
2023/10/11 02:41:32;;;;;;;14.85;7.03;;;;;;;12.93;100.00;100969.22;5981073;23;20019;-73
2023/10/11 02:43:58;;;;;;;13.00;6.80;;;;;;;12.95;100.00;100975.13;6005755;23;20114;-74
2023/10/11 02:46:24;;;;;;;;;;;;;;;12.96;100.00;100966.00;6006540;23;20482;-74
2023/10/11 02:49:05;;;;;;;11.25;5.72;;;;;;;12.96;100.00;100972.16;6005673;23;19910;-74
2023/10/11 02:51:33;;;;;;;13.85;7.43;;;;;;;12.94;100.00;100958.22;5983458;23;20023;-73
2023/10/11 02:54:04;;;;;;;13.68;7.28;;;;;;;12.97;100.00;100946.09;5981932;23;20686;-73
2023/10/11 02:56:46;;;;;;;11.38;5.85;;;;;;;12.96;100.00;100949.84;6032593;23;20439;-73
2023/10/11 02:59:19;;;;;;;12.02;7.03;;;;;;;12.96;100.00;100945.28;5958272;23;20018;-74
2023/10/11 03:01:59;;;;;;;11.23;6.13;;;;;;;12.97;100.00;100952.25;6006772;23;20054;-74
2023/10/11 03:04:41;;;;;;;10.77;6.45;;;;;;;12.98;100.00;100963.81;6006734;23;20011;-73
2023/10/11 03:07:23;;;;;;;16.55;7.13;;;;;;;12.97;100.00;100956.84;5959113;23;20015;-72
2023/10/11 03:09:51;;;;;;;13.45;6.78;;;;;;;12.97;100.00;100951.47;6006369;23;20011;-74
2023/10/11 03:12:26;;;;;;;12.82;6.35;;;;;;;12.96;100.00;100955.22;6006385;23;20021;-73
2023/10/11 03:14:54;;;;;;;12.18;7.22;;;;;;;12.94;100.00;100957.38;5982406;23;20063;-73
2023/10/11 03:17:23;;;;;;;16.92;6.82;;;;;;;12.92;100.00;100949.59;6006463;23;20019;-72
2023/10/11 03:19:49;;;;;;;12.73;6.75;;;;;;;12.92;100.00;100943.41;6006076;23;20018;-73
2023/10/11 03:22:20;;;;;;;14.60;6.75;;;;;;;12.92;100.00;100938.06;6006092;23;20030;-75
2023/10/11 03:24:53;;;;;;;13.38;7.15;;;;;;;12.89;100.00;100944.00;5982050;23;20022;-74
2023/10/11 03:27:23;;;;;;;13.38;7.85;;;;;;;12.90;100.00;100942.91;6006916;23;20021;-73
2023/10/11 03:29:52;;;;;;;12.73;7.00;;;;;;;12.89;100.00;100938.63;6009438;23;20034;-74
2023/10/11 03:32:18;;;;;;;11.13;6.22;;;;;;;12.88;100.00;100931.66;6006386;23;20066;-73
2023/10/11 03:34:44;;;;;;;15.75;7.10;;;;;;;12.89;100.00;100941.31;5983055;23;20023;-74
2023/10/11 03:37:18;;;;;;;12.82;7.47;;;;;;;12.89;100.00;100928.66;6003899;23;20094;-72
2023/10/11 03:39:54;;;;;;;12.20;6.63;;;;;;;12.87;100.00;100924.63;5982849;23;20011;-76
2023/10/11 03:42:20;;;;;;;12.77;7.45;;;;;;;12.87;100.00;100919.25;6031511;23;20022;-74
2023/10/11 03:44:46;;;;;;;;;;;;;;;12.88;100.00;100912.84;6006363;23;20118;-76
2023/10/11 03:47:24;;;;;;;14.15;7.05;;;;;;;12.90;100.00;100907.97;6005407;23;19918;-73
2023/10/11 03:49:53;;;;;;;11.95;6.78;;;;;;;12.91;100.00;100909.56;6005590;23;20446;-75
2023/10/11 03:52:22;;;;;;;10.43;6.75;;;;;;;12.92;100.00;100905.78;5981431;23;20022;-73
2023/10/11 03:55:09;;;;;;;12.88;7.38;;;;;;;12.93;100.00;100907.41;5982128;23;20030;-74
2023/10/11 03:57:42;;;;;;;13.45;7.30;;;;;;;12.92;100.00;100895.03;6031163;23;20012;-75
2023/10/11 04:03:02;;;;;;;12.48;7.00;;;;;;;12.95;100.00;100886.44;6006433;23;20083;-74
2023/10/11 04:05:34;;;;;;;13.60;7.45;;;;;;;12.97;100.00;100877.00;6006505;23;20025;-74
2023/10/11 04:08:05;;;;;;;13.00;6.55;;;;;;;13.01;100.00;100885.31;5982110;23;20027;-73
2023/10/11 04:10:46;;;;;;;12.05;6.78;;;;;;;13.01;100.00;100896.84;6005634;23;20098;-74
2023/10/11 04:13:14;;;;;;;15.50;7.45;;;;;;;13.00;100.00;100897.91;5982126;23;20015;-73
2023/10/11 04:15:42;;;;;;;12.63;6.63;;;;;;;12.98;100.00;100891.22;6006219;23;20043;-73
2023/10/11 04:18:20;;;;;;;14.88;6.28;;;;;;;12.95;100.00;100889.91;6006133;23;20055;-75
2023/10/11 04:20:53;;;;;;;18.83;7.32;;;;;;;12.94;100.00;100892.88;6030368;23;20031;-73
2023/10/11 04:23:24;;;;;;;14.88;7.15;;;;;;;13.02;100.00;100881.53;5981642;23;20015;-73
2023/10/11 04:25:50;;;;;;;11.02;6.40;;;;;;;13.08;100.00;100877.72;6006044;23;20016;-72
2023/10/11 04:28:15;;;;;;;;;;;;;;;13.09;100.00;100873.94;5982941;23;20143;-73
2023/10/11 04:30:43;;;;;;;14.77;6.70;;;;;;;13.06;100.00;100864.53;6031320;23;20038;-74
2023/10/11 04:33:13;;;;;;;12.65;6.97;;;;;;;13.09;100.00;100879.31;6005747;23;20026;-73
2023/10/11 04:35:42;;;;;;;12.00;6.47;;;;;;;13.06;100.00;100871.78;5959755;23;20828;-72
2023/10/11 04:38:13;;;;;;;10.48;6.82;;;;;;;13.03;100.00;100875.06;5958984;23;20023;-73
2023/10/11 04:40:42;;;;;;;11.45;6.78;;;;;;;12.98;100.00;100861.66;6031630;23;20067;-72
2023/10/11 04:43:24;;;;;;;13.75;6.90;;;;;;;13.05;100.00;100862.13;6005628;23;20457;-73
2023/10/11 04:45:51;;;;;;;12.35;6.82;;;;;;;13.06;100.00;100853.78;5981793;23;20023;-73
2023/10/11 04:48:19;;;;;;;9.85;6.10;;;;;;;13.01;100.00;100851.16;6008274;23;20441;-71
2023/10/11 04:50:47;;;;;;;9.15;5.75;;;;;;;12.97;100.00;100860.06;5959483;23;20023;-73
2023/10/11 04:53:17;;;;;;;15.52;6.90;;;;;;;12.93;100.00;100859.00;6004977;23;20012;-74
2023/10/11 04:55:59;;;;;;;10.70;7.03;;;;;;;12.89;100.00;100863.38;5980237;23;20034;-72
2023/10/11 04:58:42;;;;;;;12.35;6.20;;;;;;;12.85;100.00;100874.66;5979737;23;20039;-73
2023/10/11 05:01:11;;;;;;;11.88;6.45;;;;;;;12.82;100.00;100867.16;6005486;23;20027;-74
2023/10/11 05:03:38;;;;;;;9.63;6.72;;;;;;;12.79;100.00;100874.97;6003540;23;20044;-74
2023/10/11 05:06:14;;;;;;;13.60;6.97;;;;;;;12.81;100.00;100859.41;6029676;23;20011;-74
2023/10/11 05:08:52;;;;;;;10.38;6.13;;;;;;;12.78;100.00;100879.56;5937195;23;20019;-74
2023/10/11 05:11:39;;;;;;;;;;;;;;;12.74;100.00;100883.91;6002208;23;20631;-74
2023/10/11 05:16:50;;;;;;;14.07;6.80;;;;;;;12.67;100.00;100882.63;6005946;23;20022;-73
2023/10/11 05:19:20;;;;;;;;;;;;;;;12.67;100.00;100880.72;5982343;23;20391;-74
2023/10/11 05:21:52;;;;;;;10.45;6.60;;;;;;;12.65;100.00;100874.00;5981910;23;19917;-76
2023/10/11 05:24:44;;;;;;;13.10;6.88;;;;;;;12.65;100.00;100880.19;5959407;23;20015;-76
2023/10/11 05:32:41;;;;;;;13.38;6.85;;;;;;;12.64;100.00;100894.72;5981720;23;20034;-73
2023/10/11 05:51:43;;;;;;;12.80;6.85;;;;;;;13.23;100.00;100869.53;6011121;23;20026;-73
2023/10/11 05:54:11;;;;;;;11.77;7.57;;;;;;;13.17;100.00;100881.38;5964456;23;20048;-73
2023/10/11 05:56:45;;;;;;;14.57;7.18;;;;;;;13.13;100.00;100888.41;5963123;23;20475;-73
2023/10/11 05:59:13;;;;;;;12.57;7.95;;;;;;;13.11;100.00;100906.72;6037185;23;20015;-72
2023/10/11 06:01:44;;;;;;;10.95;6.55;;;;;;;13.09;100.00;100916.97;5965293;23;20019;-73
2023/10/11 06:04:13;;;;;;;14.75;7.90;;;;;;;13.05;100.00;100911.31;5988860;23;20094;-73
2023/10/11 06:06:45;;;;;;;10.80;6.82;;;;;;;13.04;100.00;100914.31;5989479;23;20071;-74
2023/10/11 06:09:18;;;;;;;10.75;7.05;;;;;;;12.99;100.00;100915.13;6014011;23;20019;-72
2023/10/11 06:11:50;;;;;;;13.30;7.32;;;;;;;12.97;100.00;100920.00;5968520;23;20020;-74
2023/10/11 06:14:19;;;;;;;;;;;;;;;12.99;100.00;100911.66;5991223;23;20019;-73
2023/10/11 06:16:57;;;;;;;11.52;7.40;;;;;;;12.99;100.00;100911.66;6014799;23;19914;-74
2023/10/11 06:19:27;;;;;;;;;;;;;;;13.00;100.00;100908.66;5991167;23;20030;-72
2023/10/11 06:21:56;;;;;;;11.40;6.30;;;;;;;13.01;100.00;100906.81;5990752;23;20252;-73
2023/10/11 06:24:26;;;;;;;13.38;7.50;;;;;;;13.05;100.00;100902.47;5989304;23;20019;-73
2023/10/11 06:26:52;;;;;;;12.60;6.50;;;;;;;13.17;100.00;100896.72;6037839;23;20011;-73
2023/10/11 06:29:22;;;;;;;;;;;;;;;13.24;100.00;100908.78;5991255;23;20516;-73
2023/10/11 06:31:49;;;;;;;14.52;6.95;;;;;;;13.29;100.00;100924.88;6013451;23;19937;-73
2023/10/11 06:34:23;;;;;;;12.55;7.43;;;;;;;13.34;100.00;100913.25;6039134;23;20011;-72
2023/10/11 06:36:53;;;;;;;14.13;6.70;;;;;;;13.38;100.00;100890.88;5991100;23;20045;-73
2023/10/11 06:42:21;;;;;;;12.65;7.15;;;;;;;13.68;100.00;100896.22;6014569;23;20020;-73
2023/10/11 06:44:57;;;;;;;10.60;7.05;;;;;;;13.70;100.00;100894.88;5991511;23;20070;-72
2023/10/11 06:47:25;;;;;;;12.20;6.50;;;;;;;13.78;100.00;100896.13;6014828;23;20047;-72
2023/10/11 06:49:56;;;;;;;11.52;6.80;;;;;;;13.81;100.00;100882.88;6039336;23;20011;-73
2023/10/11 06:52:33;;;;;;;11.05;7.00;;;;;;;13.89;100.00;100882.25;6037805;23;20042;-74
2023/10/11 06:55:15;;;;;;;15.48;7.10;;;;;;;13.98;100.00;100873.53;5989637;23;20019;-74
2023/10/11 06:57:45;;;;;;;12.13;6.90;;;;;;;14.12;100.00;100877.13;5991653;23;20011;-74
2023/10/11 07:00:36;;;;;;;13.32;7.13;;;;;;;14.27;100.00;100854.56;5988146;23;20403;-74
2023/10/11 07:03:21;;;;;;;13.70;7.50;;;;;;;14.50;100.00;100861.00;6008586;23;20038;-75
2023/10/11 07:05:49;;;;;;;15.95;6.65;;;;;;;14.68;100.00;100860.97;5960599;23;20119;-74
2023/10/11 07:08:20;;;;;;;10.30;5.95;;;;;;;14.76;100.00;100859.50;5960286;23;20024;-74
2023/10/11 07:16:37;;;;;;;13.23;6.00;;;;;;;14.89;100.00;100876.81;5921752;24;20425;-74
2023/10/11 07:19:05;;;;;;;12.77;6.50;;;;;;;14.86;100.00;100894.38;5922824;24;20057;-72
2023/10/11 07:24:55;;;;;;;10.13;6.18;;;;;;;14.88;100.00;100891.41;6007248;23;20103;-74
2023/10/11 07:27:13;;;;;;;16.27;6.30;;;;;;;14.83;100.00;100881.47;6024343;23;20019;-73
2023/10/11 07:29:42;;;;;;;11.48;6.47;;;;;;;14.91;100.00;100888.13;5985442;23;20022;-74
2023/10/11 07:32:12;;;;;;;12.57;6.88;;;;;;;14.91;100.00;100880.84;6008671;23;20678;-74
2023/10/11 07:34:41;;;;;;;13.93;7.57;;;;;;;14.94;100.00;100884.81;6008121;23;20011;-74
2023/10/11 07:37:07;;;;;;;10.73;7.35;;;;;;;15.00;100.00;100884.44;6008890;23;20021;-73
2023/10/11 07:39:37;;;;;;;13.00;6.13;;;;;;;14.97;100.00;100895.84;5965157;23;20027;-73
2023/10/11 07:42:09;;;;;;;14.30;7.47;;;;;;;15.01;100.00;100915.72;6011112;23;20629;-72
2023/10/11 07:44:39;;;;;;;12.27;6.20;;;;;;;14.96;100.00;100915.78;5987601;23;20018;-74
2023/10/11 07:47:15;;;;;;;14.55;6.57;;;;;;;15.01;100.00;100896.81;5987694;23;20099;-73
2023/10/11 07:49:41;;;;;;;13.73;7.32;;;;;;;15.01;100.00;100883.34;5985160;23;20019;-75
2023/10/11 07:52:09;;;;;;;12.48;6.28;;;;;;;15.06;100.00;100892.47;5964781;23;20019;-74
2023/10/11 07:54:39;;;;;;;14.75;7.03;;;;;;;15.07;100.00;100886.75;6008884;23;20572;-76
2023/10/11 07:57:14;;;;;;;13.02;6.00;;;;;;;15.08;100.00;100895.66;6035777;23;20018;-76
2023/10/11 07:59:44;;;;;;;12.38;6.63;;;;;;;15.06;100.00;100900.53;5989837;23;20468;-76
2023/10/11 08:04:57;;;;;;;15.05;6.43;;;;;;;15.09;100.00;100921.53;5986614;23;20019;-75
2023/10/11 08:07:23;;;;;;;15.32;7.70;;;;;;;15.10;100.00;100915.03;6006490;23;20015;-74
2023/10/11 08:09:52;;;;;;;14.18;6.60;;;;;;;15.08;100.00;100903.75;6007742;23;20019;-75
2023/10/11 08:12:23;;;;;;;13.95;7.03;;;;;;;15.09;100.00;100908.03;5964063;23;20023;-74
2023/10/11 08:14:53;;;;;;;9.82;7.07;;;;;;;15.12;100.00;100916.34;6035483;23;20090;-72
2023/10/11 08:17:20;;;;;;;11.90;7.07;;;;;;;15.08;100.00;100906.44;6035546;23;20011;-75
2023/10/11 08:19:48;;;;;;;17.55;6.78;;;;;;;15.12;100.00;100913.66;5986370;23;20031;-74
2023/10/11 08:22:16;;;;;;;11.18;6.57;;;;;;;15.12;100.00;100899.38;5984929;23;20030;-74
2023/10/11 08:24:49;;;;;;;11.57;6.35;;;;;;;15.16;100.00;100884.97;5985519;23;20166;-72
2023/10/11 08:27:27;;;;;;;13.75;8.00;;;;;;;15.20;100.00;100888.69;6009111;23;20046;-76
2023/10/11 08:30:09;;;;;;;13.85;7.45;;;;;;;15.20;100.00;100890.59;5982338;23;20015;-74
2023/10/11 08:32:42;;;;;;;12.45;6.70;;;;;;;15.25;100.00;100890.50;5985800;23;20015;-72
2023/10/11 08:35:10;;;;;;;10.82;7.10;;;;;;;15.27;100.00;100886.41;5985139;23;20019;-75
2023/10/11 08:37:37;;;;;;;12.70;7.00;;;;;;;15.26;100.00;100875.91;6007597;23;20019;-73
2023/10/11 08:40:20;;;;;;;14.60;7.70;;;;;;;15.34;100.00;100875.22;6007103;23;20070;-75
2023/10/11 08:42:50;;;;;;;15.70;7.45;;;;;;;15.36;100.00;100864.91;6007437;23;20019;-75
2023/10/11 08:45:28;;;;;;;16.70;6.88;;;;;;;15.44;100.00;100856.13;6032947;23;20070;-75
2023/10/11 08:47:57;;;;;;;12.57;6.90;;;;;;;15.48;100.00;100864.44;6008781;23;20016;-76
2023/10/11 08:50:27;;;;;;;13.43;7.40;;;;;;;15.50;100.00;100860.34;5960300;23;20049;-73
2023/10/11 08:52:55;;;;;;;17.25;7.80;;;;;;;15.60;100.00;100853.16;6007728;23;20439;-74
2023/10/11 08:55:24;;;;;;;14.55;7.65;;;;;;;15.67;100.00;100862.47;6005223;23;20357;-73
2023/10/11 08:57:50;;;;;;;13.77;7.28;;;;;;;15.78;100.00;100860.34;5960341;23;20011;-75
2023/10/11 09:00:28;;;;;;;14.30;7.40;;;;;;;15.86;100.00;100859.66;6030339;23;20026;-76
2023/10/11 09:03:18;;;;;;;15.13;7.18;;;;;;;15.89;100.00;100875.25;6029475;23;20051;-76
2023/10/11 09:05:47;;;;;;;15.05;7.80;;;;;;;15.97;100.00;100879.94;6005650;23;20045;-73
2023/10/11 09:08:26;;;;;;;13.55;7.47;;;;;;;15.93;100.00;100878.97;5983154;23;20015;-73
2023/10/11 09:11:14;;;;;;;16.10;6.95;;;;;;;15.92;100.00;100877.38;6032513;23;20015;-73
2023/10/11 09:13:41;;;;;;;17.10;7.75;;;;;;;15.98;100.00;100865.34;6007357;23;20019;-74
2023/10/11 09:16:12;;;;;;;14.73;8.05;;;;;;;16.07;100.00;100863.53;5983669;23;20011;-73
2023/10/11 09:18:38;;;;;;;14.40;7.75;;;;;;;16.15;100.00;100855.81;5984254;23;20019;-75
2023/10/11 09:21:18;;;;;;;13.77;7.80;;;;;;;16.28;100.00;100857.69;6032640;23;20438;-74
2023/10/11 09:23:48;;;;;;;12.68;7.97;;;;;;;16.36;100.00;100862.38;6007739;23;20082;-76
2023/10/11 09:26:32;;;;;;;13.70;7.40;;;;;;;16.46;100.00;100858.63;6004764;23;20035;-73
2023/10/11 09:29:02;;;;;;;15.80;7.13;;;;;;;16.47;100.00;100855.63;6008461;23;20098;-75
2023/10/11 09:31:31;;;;;;;18.17;7.90;;;;;;;16.54;100.00;100853.28;6007430;23;20079;-75
2023/10/11 09:34:03;;;;;;;16.10;8.05;;;;;;;16.62;100.00;100847.16;5961991;23;20026;-73
2023/10/11 09:36:30;;;;;;;16.40;8.77;;;;;;;16.69;100.00;100851.31;5983706;23;20015;-74
2023/10/11 09:38:58;;;;;;;12.88;7.70;;;;;;;16.73;100.00;100841.50;6007097;23;20027;-74
2023/10/11 09:41:25;;;;;;;16.80;9.10;;;;;;;16.82;100.00;100855.91;6031510;23;20015;-73
2023/10/11 09:43:59;;;;;;;14.65;7.40;;;;;;;16.83;100.00;100857.50;5984906;23;20098;-72
2023/10/11 09:46:29;;;;;;;11.95;7.18;;;;;;;16.84;100.00;100864.50;6007042;23;20015;-73
2023/10/11 09:49:12;;;;;;;17.80;8.05;;;;;;;16.83;100.00;100873.72;6008356;23;20023;-73
2023/10/11 09:51:41;;;;;;;16.15;7.28;;;;;;;16.77;100.00;100893.88;5962219;23;20051;-73
2023/10/11 09:54:12;;;;;;;12.68;8.00;;;;;;;16.67;100.00;100886.78;6008990;23;20019;-74
2023/10/11 09:56:50;;;;;;;14.45;7.45;;;;;;;16.60;100.00;100891.81;6007799;23;20035;-72
2023/10/11 09:59:29;;;;;;;;;;;;;;;16.51;100.00;100894.44;6009539;23;20086;-74
2023/10/11 10:02:06;;;;;;;14.48;7.93;;;;;;;16.49;100.00;100885.03;6008093;23;19925;-75
2023/10/11 10:04:51;;;;;;;12.95;7.47;;;;;;;16.47;100.00;100888.06;5985249;23;20011;-73
2023/10/11 10:10:06;;;;;;;16.20;8.18;;;;;;;16.36;100.00;100905.59;5984104;23;20051;-73
2023/10/11 10:12:32;;;;;;;13.73;8.60;;;;;;;16.34;100.00;100902.41;6006082;23;20098;-74
2023/10/11 10:15:13;;;;;;;13.88;7.80;;;;;;;16.32;100.00;100901.91;5983534;23;20827;-74
2023/10/11 10:18:05;;;;;;;11.90;7.88;;;;;;;16.30;100.00;100898.72;5960379;23;20047;-72
2023/10/11 10:20:34;;;;;;;12.27;8.82;;;;;;;16.28;100.00;100896.31;5996684;23;20106;-73
2023/10/11 10:23:15;;;;;;;15.60;8.85;;;;;;;16.27;100.00;100899.34;5983009;23;20038;-74
2023/10/11 10:25:49;;;;;;;14.07;9.98;;;;;;;16.24;100.00;100914.22;6006717;23;20027;-72
2023/10/11 10:28:36;;;;;;;17.02;7.93;;;;;;;16.22;100.00;100913.75;5984363;23;20071;-73
2023/10/11 10:31:04;;;;;;;11.35;7.47;;;;;;;16.21;100.00;100911.34;5983862;23;20026;-73
2023/10/11 10:33:35;;;;;;;14.38;8.57;;;;;;;16.16;100.00;100914.16;5983657;23;20023;-72
2023/10/11 10:36:19;;;;;;;13.55;8.50;;;;;;;16.18;100.00;100928.16;5983477;23;20472;-73
2023/10/11 10:39:00;;;;;;;16.55;8.43;;;;;;;16.14;100.00;100927.16;6007360;23;20050;-72
2023/10/11 10:41:30;;;;;;;16.92;8.65;;;;;;;16.10;100.00;100933.16;5983958;23;20025;-73
2023/10/11 10:44:06;;;;;;;19.50;9.30;;;;;;;16.10;100.00;100943.97;5983737;23;20731;-74
2023/10/11 10:46:36;;;;;;;16.25;10.07;;;;;;;16.06;100.00;100929.47;6031407;23;20011;-76
2023/10/11 10:49:03;;;;;;;14.15;9.30;;;;;;;16.06;100.00;100925.97;6008167;23;20019;-74
2023/10/11 10:51:36;;;;;;;15.50;8.80;;;;;;;16.07;100.00;100939.19;5984270;23;20019;-75
2023/10/11 10:54:12;;;;;;;14.50;8.57;;;;;;;16.06;100.00;100937.59;5984928;23;20350;-74
2023/10/11 10:56:46;;;;;;;16.13;10.10;;;;;;;16.06;100.00;100944.88;5960162;23;20071;-73
2023/10/11 10:59:14;;;;;;;18.13;8.73;;;;;;;16.05;100.00;100941.38;6007305;23;20078;-74
2023/10/11 11:01:47;;;;;;;14.90;8.88;;;;;;;16.06;100.00;100943.00;6032947;23;20528;-75
2023/10/11 11:04:16;;;;;;;14.85;9.55;;;;;;;16.05;100.00;100941.38;5960213;23;20015;-74
2023/10/11 11:06:46;;;;;;;18.42;10.23;;;;;;;16.04;100.00;100944.38;5981666;23;20015;-74
2023/10/11 11:09:19;;;;;;;14.88;9.38;;;;;;;16.03;100.00;100953.59;5984683;23;20039;-73
2023/10/11 11:11:48;;;;;;;16.00;9.63;;;;;;;16.05;100.00;100941.38;6032915;23;20086;-75
2023/10/11 11:14:19;;;;;;;18.13;10.85;;;;;;;16.05;100.00;100946.78;6011513;23;20011;-71
2023/10/11 11:16:59;;;;;;;20.10;10.43;;;;;;;16.05;100.00;100941.38;6008619;23;20021;-72
2023/10/11 11:19:26;;;;;;;16.17;8.98;;;;;;;16.07;100.00;100933.78;6030229;23;20102;-73
2023/10/11 11:22:11;;;;;;;18.42;9.65;;;;;;;16.08;100.00;100929.97;6008902;23;20011;-73
2023/10/11 11:24:41;;;;;;;14.88;9.93;;;;;;;16.10;100.00;100927.75;6007116;23;20016;-72
2023/10/11 11:27:18;;;;;;;17.85;9.63;;;;;;;16.13;100.00;100912.06;5985574;23;20071;-72
2023/10/11 11:29:48;;;;;;;17.63;10.02;;;;;;;16.18;100.00;100920.03;5983388;23;20029;-74
2023/10/11 11:32:23;;;;;;;15.57;9.77;;;;;;;16.22;100.00;100915.66;6007489;23;20077;-72
2023/10/11 11:38:05;;;;;;;15.75;10.13;;;;;;;16.19;100.00;100900.03;6008437;23;20004;-73
2023/10/11 11:40:36;;;;;;;19.35;9.27;;;;;;;16.21;100.00;100895.13;6033754;23;20014;-73
2023/10/11 11:43:03;;;;;;;15.52;9.73;;;;;;;16.24;100.00;100911.53;5983739;23;20015;-77
2023/10/11 11:45:35;;;;;;;17.65;9.00;;;;;;;16.27;100.00;100899.34;6006317;23;20011;-74
2023/10/11 11:48:05;;;;;;;16.35;9.00;;;;;;;16.27;100.00;100883.13;6007567;23;20025;-74
2023/10/11 11:50:36;;;;;;;15.50;9.77;;;;;;;16.28;100.00;100884.72;6007539;23;20016;-74
2023/10/11 11:53:03;;;;;;;15.02;8.90;;;;;;;16.27;100.00;100878.50;6008290;23;20086;-74
2023/10/11 11:55:29;;;;;;;15.38;9.55;;;;;;;16.33;100.00;100881.91;5983839;23;20526;-75
2023/10/11 11:57:55;;;;;;;15.20;8.73;;;;;;;16.35;100.00;100874.28;5961976;23;20012;-73
2023/10/11 12:02:55;;;;;;;19.58;9.25;;;;;;;16.35;100.00;100861.56;5983851;23;20432;-73
2023/10/11 12:05:21;;;;;;;15.57;9.45;;;;;;;16.36;100.00;100844.25;5961526;23;20019;-73
2023/10/11 12:07:51;;;;;;;15.20;7.93;;;;;;;16.41;100.00;100848.75;5985033;23;20334;-74
2023/10/11 12:10:24;;;;;;;11.95;8.05;;;;;;;16.41;100.00;100846.03;5983755;23;20027;-72
2023/10/11 12:12:53;;;;;;;;;;;;;;;16.44;100.00;100861.63;6010012;23;20505;-73
2023/10/11 12:15:19;;;;;;;15.25;8.10;;;;;;;16.43;100.00;100876.25;5990579;23;19941;-75
2023/10/11 12:17:47;;;;;;;14.80;8.57;;;;;;;16.44;100.00;100858.13;5987037;23;20035;-75
2023/10/11 12:20:15;;;;;;;16.30;8.48;;;;;;;16.54;100.00;100853.28;5984973;23;20038;-74
2023/10/11 12:22:44;;;;;;;10.55;7.82;;;;;;;16.58;100.00;100835.34;5961404;23;20019;-75
2023/10/11 12:25:10;;;;;;;15.13;8.75;;;;;;;16.70;100.00;100834.81;6007717;23;20023;-75
2023/10/11 12:27:42;;;;;;;12.35;8.00;;;;;;;16.76;100.00;100830.09;6007516;23;20011;-74
2023/10/11 12:30:19;;;;;;;11.30;7.38;;;;;;;16.83;100.00;100841.28;5983088;23;20354;-75